sensor_id;sensor_type;location;lat;lon;timestamp;temperature;humidity
36652;DHT22;53334;51.976;20.144;2023-11-19T00:00:10;25.50;41.40
36652;DHT22;53334;51.976;20.144;2023-11-19T00:02:45;25.50;41.40
36652;DHT22;53334;51.976;20.144;2023-11-19T00:05:19;25.50;41.50
36652;DHT22;53334;51.976;20.144;2023-11-19T00:07:52;25.50;42.00
36652;DHT22;53334;51.976;20.144;2023-11-19T00:10:27;25.50;41.40
36652;DHT22;53334;51.976;20.144;2023-11-19T00:13:00;25.50;41.40
36652;DHT22;53334;51.976;20.144;2023-11-19T00:15:34;25.50;41.40
36652;DHT22;53334;51.976;20.144;2023-11-19T00:18:07;25.50;41.40
36652;DHT22;53334;51.976;20.144;2023-11-19T00:20:41;25.50;41.50
36652;DHT22;53334;51.976;20.144;2023-11-19T00:23:16;25.50;41.60
36652;DHT22;53334;51.976;20.144;2023-11-19T00:25:51;25.50;41.60
36652;DHT22;53334;51.976;20.144;2023-11-19T00:28:24;25.50;41.60
36652;DHT22;53334;51.976;20.144;2023-11-19T00:30:57;25.50;41.80
36652;DHT22;53334;51.976;20.144;2023-11-19T00:33:31;25.50;42.00
36652;DHT22;53334;51.976;20.144;2023-11-19T00:36:05;25.50;42.70
36652;DHT22;53334;51.976;20.144;2023-11-19T00:38:38;25.50;43.20
36652;DHT22;53334;51.976;20.144;2023-11-19T00:41:13;25.50;43.20
36652;DHT22;53334;51.976;20.144;2023-11-19T00:43:47;25.50;43.30
36652;DHT22;53334;51.976;20.144;2023-11-19T00:46:21;25.50;43.40
36652;DHT22;53334;51.976;20.144;2023-11-19T00:48:54;25.50;43.40
36652;DHT22;53334;51.976;20.144;2023-11-19T00:51:28;25.50;43.50
36652;DHT22;53334;51.976;20.144;2023-11-19T08:12:13;23.30;47.70
36652;DHT22;53334;51.976;20.144;2023-11-19T08:14:47;23.80;47.50
36652;DHT22;53334;51.976;20.144;2023-11-19T08:17:21;23.90;47.20
36652;DHT22;53334;51.976;20.144;2023-11-19T08:19:55;24.00;47.00
36652;DHT22;53334;51.976;20.144;2023-11-19T08:22:28;24.20;46.70
36652;DHT22;53334;51.976;20.144;2023-11-19T08:25:01;24.20;46.50
36652;DHT22;53334;51.976;20.144;2023-11-19T08:27:36;24.40;46.20
36652;DHT22;53334;51.976;20.144;2023-11-19T08:30:10;24.40;46.00
36652;DHT22;53334;51.976;20.144;2023-11-19T08:32:43;24.50;45.70
36652;DHT22;53334;51.976;20.144;2023-11-19T08:35:16;24.60;46.10
36652;DHT22;53334;51.976;20.144;2023-11-19T08:37:50;24.60;46.40
36652;DHT22;53334;51.976;20.144;2023-11-19T08:40:24;24.70;46.50
36652;DHT22;53334;51.976;20.144;2023-11-19T08:42:59;24.80;46.70
36652;DHT22;53334;51.976;20.144;2023-11-19T08:45:32;24.80;46.90
36652;DHT22;53334;51.976;20.144;2023-11-19T08:48:05;24.80;46.90
36652;DHT22;53334;51.976;20.144;2023-11-19T08:50:39;24.90;47.20
36652;DHT22;53334;51.976;20.144;2023-11-19T08:53:12;24.90;47.10
36652;DHT22;53334;51.976;20.144;2023-11-19T08:55:45;25.00;47.10
36652;DHT22;53334;51.976;20.144;2023-11-19T08:58:20;25.00;47.00
36652;DHT22;53334;51.976;20.144;2023-11-19T09:00:53;25.00;47.00
36652;DHT22;53334;51.976;20.144;2023-11-19T09:03:26;25.00;46.80
36652;DHT22;53334;51.976;20.144;2023-11-19T09:06:03;25.10;46.80
36652;DHT22;53334;51.976;20.144;2023-11-19T09:08:36;25.10;46.80
36652;DHT22;53334;51.976;20.144;2023-11-19T09:11:09;25.10;47.00
36652;DHT22;53334;51.976;20.144;2023-11-19T09:13:45;25.10;47.10
36652;DHT22;53334;51.976;20.144;2023-11-19T09:16:18;25.20;47.30
36652;DHT22;53334;51.976;20.144;2023-11-19T09:18:51;25.20;47.30
36652;DHT22;53334;51.976;20.144;2023-11-19T09:21:24;25.20;47.30
36652;DHT22;53334;51.976;20.144;2023-11-19T09:23:57;25.20;47.30
36652;DHT22;53334;51.976;20.144;2023-11-19T09:26:30;25.20;47.40
36652;DHT22;53334;51.976;20.144;2023-11-19T09:29:11;25.30;47.50
36652;DHT22;53334;51.976;20.144;2023-11-19T09:31:46;25.30;47.50
36652;DHT22;53334;51.976;20.144;2023-11-19T09:34:19;25.30;47.40
36652;DHT22;53334;51.976;20.144;2023-11-19T09:36:53;25.30;47.30
36652;DHT22;53334;51.976;20.144;2023-11-19T09:39:26;25.40;47.10
36652;DHT22;53334;51.976;20.144;2023-11-19T09:41:59;25.30;46.90
36652;DHT22;53334;51.976;20.144;2023-11-19T09:44:34;25.40;46.90
36652;DHT22;53334;51.976;20.144;2023-11-19T09:47:07;25.30;40.70
36652;DHT22;53334;51.976;20.144;2023-11-19T09:49:41;25.30;34.30
36652;DHT22;53334;51.976;20.144;2023-11-19T09:52:14;25.20;31.80
36652;DHT22;53334;51.976;20.144;2023-11-19T09:54:47;25.10;34.60
36652;DHT22;53334;51.976;20.144;2023-11-19T09:57:23;25.00;34.10
36652;DHT22;53334;51.976;20.144;2023-11-19T09:59:58;25.00;34.70
36652;DHT22;53334;51.976;20.144;2023-11-19T10:02:33;25.00;36.00
36652;DHT22;53334;51.976;20.144;2023-11-19T10:05:09;25.00;36.50
36652;DHT22;53334;51.976;20.144;2023-11-19T10:07:47;25.00;37.10
36652;DHT22;53334;51.976;20.144;2023-11-19T10:10:21;25.00;38.00
36652;DHT22;53334;51.976;20.144;2023-11-19T10:12:55;25.00;37.70
36652;DHT22;53334;51.976;20.144;2023-11-19T10:15:35;25.00;37.80
36652;DHT22;53334;51.976;20.144;2023-11-19T10:18:09;25.00;38.10
36652;DHT22;53334;51.976;20.144;2023-11-19T10:20:42;25.00;37.90
36652;DHT22;53334;51.976;20.144;2023-11-19T10:23:15;25.00;38.20
36652;DHT22;53334;51.976;20.144;2023-11-19T10:25:53;25.00;39.00
36652;DHT22;53334;51.976;20.144;2023-11-19T10:28:26;25.00;38.50
36652;DHT22;53334;51.976;20.144;2023-11-19T10:31:00;25.00;38.60
36652;DHT22;53334;51.976;20.144;2023-11-19T10:33:34;25.00;38.70
36652;DHT22;53334;51.976;20.144;2023-11-19T10:36:07;25.00;39.20
36652;DHT22;53334;51.976;20.144;2023-11-19T10:38:51;25.00;39.50
36652;DHT22;53334;51.976;20.144;2023-11-19T10:41:28;25.10;40.00
36652;DHT22;53334;51.976;20.144;2023-11-19T10:44:01;25.10;40.10
36652;DHT22;53334;51.976;20.144;2023-11-19T10:46:40;25.10;40.50
36652;DHT22;53334;51.976;20.144;2023-11-19T10:49:13;25.10;41.50
36652;DHT22;53334;51.976;20.144;2023-11-19T10:51:46;25.10;41.60
36652;DHT22;53334;51.976;20.144;2023-11-19T10:54:20;25.20;41.70
36652;DHT22;53334;51.976;20.144;2023-11-19T10:56:55;25.10;41.70
36652;DHT22;53334;51.976;20.144;2023-11-19T10:59:31;25.10;42.00
36652;DHT22;53334;51.976;20.144;2023-11-19T11:02:09;25.20;42.70
36652;DHT22;53334;51.976;20.144;2023-11-19T11:04:47;25.20;42.30
36652;DHT22;53334;51.976;20.144;2023-11-19T11:07:23;25.20;42.40
36652;DHT22;53334;51.976;20.144;2023-11-19T11:10:08;25.20;42.40
36652;DHT22;53334;51.976;20.144;2023-11-19T11:12:41;25.20;42.40
36652;DHT22;53334;51.976;20.144;2023-11-19T11:15:18;25.20;42.50
36652;DHT22;53334;51.976;20.144;2023-11-19T11:17:57;25.20;42.60
36652;DHT22;53334;51.976;20.144;2023-11-19T11:20:33;25.20;42.60
36652;DHT22;53334;51.976;20.144;2023-11-19T11:23:31;25.20;42.60
36652;DHT22;53334;51.976;20.144;2023-11-19T11:26:23;25.20;42.80
36652;DHT22;53334;51.976;20.144;2023-11-19T11:29:02;25.20;43.10
36652;DHT22;53334;51.976;20.144;2023-11-19T11:31:43;25.20;43.10
36652;DHT22;53334;51.976;20.144;2023-11-19T11:37:24;25.20;43.50
36652;DHT22;53334;51.976;20.144;2023-11-19T11:39:58;25.20;43.60
36652;DHT22;53334;51.976;20.144;2023-11-19T11:42:35;25.20;43.90
36652;DHT22;53334;51.976;20.144;2023-11-19T11:45:09;25.20;44.00
36652;DHT22;53334;51.976;20.144;2023-11-19T11:48:05;25.20;44.20
36652;DHT22;53334;51.976;20.144;2023-11-19T11:50:56;25.30;44.70
36652;DHT22;53334;51.976;20.144;2023-11-19T11:53:31;25.30;44.90
36652;DHT22;53334;51.976;20.144;2023-11-19T11:56:08;25.30;45.10
36652;DHT22;53334;51.976;20.144;2023-11-19T11:58:41;25.30;45.40
36652;DHT22;53334;51.976;20.144;2023-11-19T12:01:16;25.30;45.40
36652;DHT22;53334;51.976;20.144;2023-11-19T12:03:55;25.30;45.60
36652;DHT22;53334;51.976;20.144;2023-11-19T12:06:29;25.30;45.70
36652;DHT22;53334;51.976;20.144;2023-11-19T12:09:03;25.30;45.70
36652;DHT22;53334;51.976;20.144;2023-11-19T12:11:38;25.40;46.00
36652;DHT22;53334;51.976;20.144;2023-11-19T12:17:52;25.40;46.30
36652;DHT22;53334;51.976;20.144;2023-11-19T12:20:26;25.40;46.50
36652;DHT22;53334;51.976;20.144;2023-11-19T12:23:06;25.40;46.80
36652;DHT22;53334;51.976;20.144;2023-11-19T12:25:41;25.40;47.10
36652;DHT22;53334;51.976;20.144;2023-11-19T12:28:17;25.40;47.30
36652;DHT22;53334;51.976;20.144;2023-11-19T12:30:50;25.40;48.00
36652;DHT22;53334;51.976;20.144;2023-11-19T12:33:26;25.40;49.00
36652;DHT22;53334;51.976;20.144;2023-11-19T12:35:59;25.50;49.90
36652;DHT22;53334;51.976;20.144;2023-11-19T12:38:37;25.50;50.70
36652;DHT22;53334;51.976;20.144;2023-11-19T12:41:11;25.50;51.00
36652;DHT22;53334;51.976;20.144;2023-11-19T12:43:45;25.50;50.90
36652;DHT22;53334;51.976;20.144;2023-11-19T12:46:22;25.50;50.70
36652;DHT22;53334;51.976;20.144;2023-11-19T12:48:56;25.50;50.30
36652;DHT22;53334;51.976;20.144;2023-11-19T12:51:31;25.50;49.60
36652;DHT22;53334;51.976;20.144;2023-11-19T12:54:04;25.50;48.70
36652;DHT22;53334;51.976;20.144;2023-11-19T12:56:39;25.50;48.60
36652;DHT22;53334;51.976;20.144;2023-11-19T12:59:13;25.50;47.50
36652;DHT22;53334;51.976;20.144;2023-11-19T13:01:54;25.50;47.20
36652;DHT22;53334;51.976;20.144;2023-11-19T13:04:28;25.60;46.80
36652;DHT22;53334;51.976;20.144;2023-11-19T13:07:02;25.50;46.40
36652;DHT22;53334;51.976;20.144;2023-11-19T13:09:37;25.50;46.20
36652;DHT22;53334;51.976;20.144;2023-11-19T13:12:15;25.50;45.80
36652;DHT22;53334;51.976;20.144;2023-11-19T13:14:51;25.50;45.70
36652;DHT22;53334;51.976;20.144;2023-11-19T13:17:25;25.50;45.80
36652;DHT22;53334;51.976;20.144;2023-11-19T13:19:59;25.50;45.80
36652;DHT22;53334;51.976;20.144;2023-11-19T13:22:32;25.50;45.90
36652;DHT22;53334;51.976;20.144;2023-11-19T13:25:06;25.50;46.10
36652;DHT22;53334;51.976;20.144;2023-11-19T13:27:41;25.50;46.20
36652;DHT22;53334;51.976;20.144;2023-11-19T13:30:15;25.50;46.40
36652;DHT22;53334;51.976;20.144;2023-11-19T13:32:52;25.50;46.40
36652;DHT22;53334;51.976;20.144;2023-11-19T13:35:28;25.50;46.20
36652;DHT22;53334;51.976;20.144;2023-11-19T13:38:01;25.50;45.90
36652;DHT22;53334;51.976;20.144;2023-11-19T13:40:34;25.40;45.50
36652;DHT22;53334;51.976;20.144;2023-11-19T13:43:09;25.40;45.40
36652;DHT22;53334;51.976;20.144;2023-11-19T13:45:44;25.50;45.10
36652;DHT22;53334;51.976;20.144;2023-11-19T13:48:17;25.40;44.80
36652;DHT22;53334;51.976;20.144;2023-11-19T13:50:50;25.40;44.60
36652;DHT22;53334;51.976;20.144;2023-11-19T13:53:24;25.40;44.40
36652;DHT22;53334;51.976;20.144;2023-11-19T13:55:57;25.40;44.30
36652;DHT22;53334;51.976;20.144;2023-11-19T13:58:31;25.40;44.00
36652;DHT22;53334;51.976;20.144;2023-11-19T14:01:05;25.40;44.10
36652;DHT22;53334;51.976;20.144;2023-11-19T14:03:38;25.40;44.30
36652;DHT22;53334;51.976;20.144;2023-11-19T14:06:12;25.50;45.10
36652;DHT22;53334;51.976;20.144;2023-11-19T14:08:46;25.50;46.30
36652;DHT22;53334;51.976;20.144;2023-11-19T14:11:19;25.50;47.40
36652;DHT22;53334;51.976;20.144;2023-11-19T14:13:54;25.50;48.20
36652;DHT22;53334;51.976;20.144;2023-11-19T14:16:27;25.50;48.70
36652;DHT22;53334;51.976;20.144;2023-11-19T14:19:01;25.60;49.20
36652;DHT22;53334;51.976;20.144;2023-11-19T14:21:34;25.60;50.00
36652;DHT22;53334;51.976;20.144;2023-11-19T14:24:08;25.60;49.90
36652;DHT22;53334;51.976;20.144;2023-11-19T14:26:41;25.70;50.30
36652;DHT22;53334;51.976;20.144;2023-11-19T14:29:16;25.70;50.10
36652;DHT22;53334;51.976;20.144;2023-11-19T14:31:49;25.70;49.90
36652;DHT22;53334;51.976;20.144;2023-11-19T14:34:22;25.70;49.60
36652;DHT22;53334;51.976;20.144;2023-11-19T14:36:56;25.70;49.50
36652;DHT22;53334;51.976;20.144;2023-11-19T14:39:30;25.70;49.60
36652;DHT22;53334;51.976;20.144;2023-11-19T14:42:03;25.70;49.40
36652;DHT22;53334;51.976;20.144;2023-11-19T14:44:40;25.70;49.30
36652;DHT22;53334;51.976;20.144;2023-11-19T14:47:14;25.80;49.20
36652;DHT22;53334;51.976;20.144;2023-11-19T14:49:48;25.80;49.10
36652;DHT22;53334;51.976;20.144;2023-11-19T14:52:21;25.80;49.10
36652;DHT22;53334;51.976;20.144;2023-11-19T14:54:57;25.80;48.90
36652;DHT22;53334;51.976;20.144;2023-11-19T14:57:30;25.80;48.70
36652;DHT22;53334;51.976;20.144;2023-11-19T15:00:05;25.80;48.60
36652;DHT22;53334;51.976;20.144;2023-11-19T15:02:45;25.70;48.80
36652;DHT22;53334;51.976;20.144;2023-11-19T15:05:18;25.80;48.90
36652;DHT22;53334;51.976;20.144;2023-11-19T15:07:52;25.80;48.90
36652;DHT22;53334;51.976;20.144;2023-11-19T15:10:25;25.80;48.80
36652;DHT22;53334;51.976;20.144;2023-11-19T15:12:58;25.80;48.50
36652;DHT22;53334;51.976;20.144;2023-11-19T15:15:33;25.80;48.30
36652;DHT22;53334;51.976;20.144;2023-11-19T15:18:08;25.70;48.10
36652;DHT22;53334;51.976;20.144;2023-11-19T15:20:41;25.70;47.80
36652;DHT22;53334;51.976;20.144;2023-11-19T15:23:18;25.80;47.70
36652;DHT22;53334;51.976;20.144;2023-11-19T15:25:52;25.70;47.30
36652;DHT22;53334;51.976;20.144;2023-11-19T15:28:25;25.70;47.00
36652;DHT22;53334;51.976;20.144;2023-11-19T15:31:01;25.70;46.80
36652;DHT22;53334;51.976;20.144;2023-11-19T15:33:35;25.60;46.60
36652;DHT22;53334;51.976;20.144;2023-11-19T15:36:09;25.60;46.30
36652;DHT22;53334;51.976;20.144;2023-11-19T15:38:42;25.60;46.20
36652;DHT22;53334;51.976;20.144;2023-11-19T15:41:18;25.60;46.00
36652;DHT22;53334;51.976;20.144;2023-11-19T15:43:52;25.60;45.80
36652;DHT22;53334;51.976;20.144;2023-11-19T15:46:27;25.60;45.70
36652;DHT22;53334;51.976;20.144;2023-11-19T15:49:01;25.60;45.50
36652;DHT22;53334;51.976;20.144;2023-11-19T15:51:34;25.60;45.40
36652;DHT22;53334;51.976;20.144;2023-11-19T15:54:07;25.50;45.20
36652;DHT22;53334;51.976;20.144;2023-11-19T15:56:40;25.50;45.10
36652;DHT22;53334;51.976;20.144;2023-11-19T15:59:13;25.50;45.00
36652;DHT22;53334;51.976;20.144;2023-11-19T16:01:48;25.50;44.80
36652;DHT22;53334;51.976;20.144;2023-11-19T16:04:21;25.50;44.70
36652;DHT22;53334;51.976;20.144;2023-11-19T16:06:54;25.50;44.70
36652;DHT22;53334;51.976;20.144;2023-11-19T16:09:29;25.50;44.50
36652;DHT22;53334;51.976;20.144;2023-11-19T16:12:02;25.50;44.40
36652;DHT22;53334;51.976;20.144;2023-11-19T16:14:37;25.50;44.40
36652;DHT22;53334;51.976;20.144;2023-11-19T16:17:11;25.50;44.40
36652;DHT22;53334;51.976;20.144;2023-11-19T16:19:44;25.50;44.30
36652;DHT22;53334;51.976;20.144;2023-11-19T16:22:18;25.50;44.20
36652;DHT22;53334;51.976;20.144;2023-11-19T16:24:55;25.50;44.20
36652;DHT22;53334;51.976;20.144;2023-11-19T16:27:28;25.50;44.10
36652;DHT22;53334;51.976;20.144;2023-11-19T16:30:01;25.40;43.90
36652;DHT22;53334;51.976;20.144;2023-11-19T16:32:50;25.40;43.80
36652;DHT22;53334;51.976;20.144;2023-11-19T16:35:25;25.40;43.90
36652;DHT22;53334;51.976;20.144;2023-11-19T16:38:04;25.40;43.80
36652;DHT22;53334;51.976;20.144;2023-11-19T16:40:38;25.40;43.70
36652;DHT22;53334;51.976;20.144;2023-11-19T16:43:11;25.40;43.50
36652;DHT22;53334;51.976;20.144;2023-11-19T16:45:45;25.40;43.50
36652;DHT22;53334;51.976;20.144;2023-11-19T16:48:19;25.40;43.60
36652;DHT22;53334;51.976;20.144;2023-11-19T16:50:52;25.40;43.70
36652;DHT22;53334;51.976;20.144;2023-11-19T16:53:28;25.40;43.80
36652;DHT22;53334;51.976;20.144;2023-11-19T16:56:01;25.40;43.90
36652;DHT22;53334;51.976;20.144;2023-11-19T16:58:35;25.40;44.10
36652;DHT22;53334;51.976;20.144;2023-11-19T17:01:09;25.40;44.10
36652;DHT22;53334;51.976;20.144;2023-11-19T17:03:43;25.40;44.30
36652;DHT22;53334;51.976;20.144;2023-11-19T17:06:17;25.40;44.70
36652;DHT22;53334;51.976;20.144;2023-11-19T17:08:50;25.40;44.60
36652;DHT22;53334;51.976;20.144;2023-11-19T17:11:24;25.40;44.90
36652;DHT22;53334;51.976;20.144;2023-11-19T17:13:57;25.40;45.10
36652;DHT22;53334;51.976;20.144;2023-11-19T17:16:31;25.50;45.40
36652;DHT22;53334;51.976;20.144;2023-11-19T17:19:06;25.50;45.60
36652;DHT22;53334;51.976;20.144;2023-11-19T17:21:39;25.50;45.80
36652;DHT22;53334;51.976;20.144;2023-11-19T17:24:12;25.50;46.00
36652;DHT22;53334;51.976;20.144;2023-11-19T17:26:46;25.50;46.20
36652;DHT22;53334;51.976;20.144;2023-11-19T17:29:19;25.50;46.20
36652;DHT22;53334;51.976;20.144;2023-11-19T17:31:53;25.50;46.30
36652;DHT22;53334;51.976;20.144;2023-11-19T17:34:28;25.50;46.40
36652;DHT22;53334;51.976;20.144;2023-11-19T17:37:01;25.50;46.40
36652;DHT22;53334;51.976;20.144;2023-11-19T17:39:35;25.50;46.40
36652;DHT22;53334;51.976;20.144;2023-11-19T17:42:09;25.50;46.30
36652;DHT22;53334;51.976;20.144;2023-11-19T17:44:42;25.50;46.20
36652;DHT22;53334;51.976;20.144;2023-11-19T17:47:15;25.50;46.00
36652;DHT22;53334;51.976;20.144;2023-11-19T17:49:50;25.50;46.00
36652;DHT22;53334;51.976;20.144;2023-11-19T17:52:24;25.50;45.90
36652;DHT22;53334;51.976;20.144;2023-11-19T17:54:57;25.50;45.70
36652;DHT22;53334;51.976;20.144;2023-11-19T17:57:31;25.50;45.60
36652;DHT22;53334;51.976;20.144;2023-11-19T18:00:06;25.50;45.50
36652;DHT22;53334;51.976;20.144;2023-11-19T18:02:43;25.50;45.50
36652;DHT22;53334;51.976;20.144;2023-11-19T18:05:19;25.50;45.40
36652;DHT22;53334;51.976;20.144;2023-11-19T18:07:53;25.50;45.30
36652;DHT22;53334;51.976;20.144;2023-11-19T18:10:27;25.50;45.30
36652;DHT22;53334;51.976;20.144;2023-11-19T18:13:01;25.50;45.20
36652;DHT22;53334;51.976;20.144;2023-11-19T18:15:34;25.50;45.30
36652;DHT22;53334;51.976;20.144;2023-11-19T18:18:08;25.50;45.50
36652;DHT22;53334;51.976;20.144;2023-11-19T18:20:43;25.50;45.70
36652;DHT22;53334;51.976;20.144;2023-11-19T18:23:16;25.50;45.70
36652;DHT22;53334;51.976;20.144;2023-11-19T18:25:50;25.50;45.80
36652;DHT22;53334;51.976;20.144;2023-11-19T18:28:24;25.50;45.80
36652;DHT22;53334;51.976;20.144;2023-11-19T18:30:59;25.50;45.90
36652;DHT22;53334;51.976;20.144;2023-11-19T18:33:33;25.50;46.00
36652;DHT22;53334;51.976;20.144;2023-11-19T18:36:10;25.50;46.00
36652;DHT22;53334;51.976;20.144;2023-11-19T18:38:43;25.50;46.10
36652;DHT22;53334;51.976;20.144;2023-11-19T18:41:17;25.50;46.10
36652;DHT22;53334;51.976;20.144;2023-11-19T18:43:50;25.50;46.00
36652;DHT22;53334;51.976;20.144;2023-11-19T18:46:23;25.50;45.90
36652;DHT22;53334;51.976;20.144;2023-11-19T18:48:56;25.50;45.90
36652;DHT22;53334;51.976;20.144;2023-11-19T18:51:33;25.50;45.80
36652;DHT22;53334;51.976;20.144;2023-11-19T18:54:07;25.50;46.30
36652;DHT22;53334;51.976;20.144;2023-11-19T18:56:40;25.50;46.30
36652;DHT22;53334;51.976;20.144;2023-11-19T18:59:13;25.50;46.20
36652;DHT22;53334;51.976;20.144;2023-11-19T19:01:47;25.50;46.20
36652;DHT22;53334;51.976;20.144;2023-11-19T19:04:20;25.50;46.10
36652;DHT22;53334;51.976;20.144;2023-11-19T19:06:55;25.50;46.00
36652;DHT22;53334;51.976;20.144;2023-11-19T19:09:29;25.50;45.90
36652;DHT22;53334;51.976;20.144;2023-11-19T19:12:03;25.50;45.60
36652;DHT22;53334;51.976;20.144;2023-11-19T19:14:36;25.50;45.40
36652;DHT22;53334;51.976;20.144;2023-11-19T19:17:10;25.40;45.30
36652;DHT22;53334;51.976;20.144;2023-11-19T19:19:43;25.50;45.10
36652;DHT22;53334;51.976;20.144;2023-11-19T19:22:17;25.40;45.00
36652;DHT22;53334;51.976;20.144;2023-11-19T19:24:51;25.40;44.90
36652;DHT22;53334;51.976;20.144;2023-11-19T19:27:25;25.40;44.70
36652;DHT22;53334;51.976;20.144;2023-11-19T19:29:58;25.40;44.60
36652;DHT22;53334;51.976;20.144;2023-11-19T19:32:31;25.40;44.50
36652;DHT22;53334;51.976;20.144;2023-11-19T19:35:06;25.40;44.40
36652;DHT22;53334;51.976;20.144;2023-11-19T19:37:41;25.40;44.50
36652;DHT22;53334;51.976;20.144;2023-11-19T19:40:16;25.40;44.30
36652;DHT22;53334;51.976;20.144;2023-11-19T19:42:53;25.40;44.30
36652;DHT22;53334;51.976;20.144;2023-11-19T19:45:27;25.40;44.30
36652;DHT22;53334;51.976;20.144;2023-11-19T19:48:03;25.30;44.10
36652;DHT22;53334;51.976;20.144;2023-11-19T19:50:36;25.30;44.20
36652;DHT22;53334;51.976;20.144;2023-11-19T19:53:11;25.30;44.30
36652;DHT22;53334;51.976;20.144;2023-11-19T19:55:44;25.40;44.50
36652;DHT22;53334;51.976;20.144;2023-11-19T19:58:17;25.30;44.60
36652;DHT22;53334;51.976;20.144;2023-11-19T20:00:50;25.30;44.60
36652;DHT22;53334;51.976;20.144;2023-11-19T20:03:23;25.30;44.70
36652;DHT22;53334;51.976;20.144;2023-11-19T20:05:57;25.30;44.70
36652;DHT22;53334;51.976;20.144;2023-11-19T20:08:32;25.30;44.70
36652;DHT22;53334;51.976;20.144;2023-11-19T20:11:05;25.30;44.70
36652;DHT22;53334;51.976;20.144;2023-11-19T20:13:41;25.30;44.60
36652;DHT22;53334;51.976;20.144;2023-11-19T20:16:14;25.30;44.60
36652;DHT22;53334;51.976;20.144;2023-11-19T20:18:47;25.20;44.50
36652;DHT22;53334;51.976;20.144;2023-11-19T20:21:20;25.30;44.50
36652;DHT22;53334;51.976;20.144;2023-11-19T20:23:55;25.20;44.40
36652;DHT22;53334;51.976;20.144;2023-11-19T20:26:30;25.30;44.40
36652;DHT22;53334;51.976;20.144;2023-11-19T20:29:03;25.30;44.40
36652;DHT22;53334;51.976;20.144;2023-11-19T20:31:40;25.20;44.20
36652;DHT22;53334;51.976;20.144;2023-11-19T20:34:13;25.20;44.60
36652;DHT22;53334;51.976;20.144;2023-11-19T20:36:46;25.20;44.50
36652;DHT22;53334;51.976;20.144;2023-11-19T20:39:21;25.20;44.40
36652;DHT22;53334;51.976;20.144;2023-11-19T20:41:54;25.20;44.30
36652;DHT22;53334;51.976;20.144;2023-11-19T20:44:27;25.20;44.20
36652;DHT22;53334;51.976;20.144;2023-11-19T20:47:00;25.20;44.10
36652;DHT22;53334;51.976;20.144;2023-11-19T20:49:36;25.20;44.10
36652;DHT22;53334;51.976;20.144;2023-11-19T20:52:09;25.20;44.00
36652;DHT22;53334;51.976;20.144;2023-11-19T20:54:44;25.20;43.90
36652;DHT22;53334;51.976;20.144;2023-11-19T20:57:18;25.20;43.80
36652;DHT22;53334;51.976;20.144;2023-11-19T20:59:51;25.20;43.70
36652;DHT22;53334;51.976;20.144;2023-11-19T21:02:25;25.20;43.70
36652;DHT22;53334;51.976;20.144;2023-11-19T21:05:00;25.20;43.40
36652;DHT22;53334;51.976;20.144;2023-11-19T21:07:33;25.20;43.30
36652;DHT22;53334;51.976;20.144;2023-11-19T21:10:09;25.20;43.20
36652;DHT22;53334;51.976;20.144;2023-11-19T21:12:44;25.20;43.20
36652;DHT22;53334;51.976;20.144;2023-11-19T21:15:18;25.20;43.10
36652;DHT22;53334;51.976;20.144;2023-11-19T21:17:52;25.20;43.10
36652;DHT22;53334;51.976;20.144;2023-11-19T21:20:25;25.20;43.50
36652;DHT22;53334;51.976;20.144;2023-11-19T21:22:58;25.20;43.60
36652;DHT22;53334;51.976;20.144;2023-11-19T21:25:33;25.20;43.60
36652;DHT22;53334;51.976;20.144;2023-11-19T21:28:06;25.20;43.50
36652;DHT22;53334;51.976;20.144;2023-11-19T21:30:40;25.20;43.60
36652;DHT22;53334;51.976;20.144;2023-11-19T21:33:13;25.20;43.50
36652;DHT22;53334;51.976;20.144;2023-11-19T21:35:46;25.20;43.50
36652;DHT22;53334;51.976;20.144;2023-11-19T21:38:20;25.20;43.30
36652;DHT22;53334;51.976;20.144;2023-11-19T21:40:55;25.20;44.00
36652;DHT22;53334;51.976;20.144;2023-11-19T21:43:28;25.20;43.80
36652;DHT22;53334;51.976;20.144;2023-11-19T21:46:02;25.20;43.80
36652;DHT22;53334;51.976;20.144;2023-11-19T21:48:36;25.20;43.50
36652;DHT22;53334;51.976;20.144;2023-11-19T21:51:10;25.20;43.40
36652;DHT22;53334;51.976;20.144;2023-11-19T21:53:43;25.20;43.10
36652;DHT22;53334;51.976;20.144;2023-11-19T21:56:17;25.20;43.10
36652;DHT22;53334;51.976;20.144;2023-11-19T21:58:50;25.20;43.00
36652;DHT22;53334;51.976;20.144;2023-11-19T22:01:23;25.20;43.10
36652;DHT22;53334;51.976;20.144;2023-11-19T22:03:57;25.20;42.90
36652;DHT22;53334;51.976;20.144;2023-11-19T22:06:31;25.20;42.80
36652;DHT22;53334;51.976;20.144;2023-11-19T22:09:04;25.20;42.70
36652;DHT22;53334;51.976;20.144;2023-11-19T22:11:41;25.30;42.80
36652;DHT22;53334;51.976;20.144;2023-11-19T22:14:15;25.20;42.60
36652;DHT22;53334;51.976;20.144;2023-11-19T22:16:49;25.20;42.40
36652;DHT22;53334;51.976;20.144;2023-11-19T22:19:22;25.30;42.40
36652;DHT22;53334;51.976;20.144;2023-11-19T22:21:56;25.20;42.20
36652;DHT22;53334;51.976;20.144;2023-11-19T22:24:29;25.30;42.20
36652;DHT22;53334;51.976;20.144;2023-11-19T22:27:04;25.30;42.10
36652;DHT22;53334;51.976;20.144;2023-11-19T22:29:37;25.30;41.90
36652;DHT22;53334;51.976;20.144;2023-11-19T22:32:10;25.30;41.90
36652;DHT22;53334;51.976;20.144;2023-11-19T22:35:04;25.30;41.90
36652;DHT22;53334;51.976;20.144;2023-11-19T22:37:37;25.30;41.80
36652;DHT22;53334;51.976;20.144;2023-11-19T22:40:11;25.30;41.70
36652;DHT22;53334;51.976;20.144;2023-11-19T22:42:45;25.30;41.70
36652;DHT22;53334;51.976;20.144;2023-11-19T22:45:19;25.30;41.80
36652;DHT22;53334;51.976;20.144;2023-11-19T22:47:52;25.30;41.70
36652;DHT22;53334;51.976;20.144;2023-11-19T22:50:25;25.30;41.60
36652;DHT22;53334;51.976;20.144;2023-11-19T22:52:58;25.40;41.70
36652;DHT22;53334;51.976;20.144;2023-11-19T22:55:32;25.40;41.70
36652;DHT22;53334;51.976;20.144;2023-11-19T22:58:07;25.40;41.70
36652;DHT22;53334;51.976;20.144;2023-11-19T23:00:40;25.40;41.70
36652;DHT22;53334;51.976;20.144;2023-11-19T23:03:13;25.40;41.80
36652;DHT22;53334;51.976;20.144;2023-11-19T23:05:47;25.40;41.90
36652;DHT22;53334;51.976;20.144;2023-11-19T23:08:20;25.40;41.90
36652;DHT22;53334;51.976;20.144;2023-11-19T23:10:53;25.40;42.10
36652;DHT22;53334;51.976;20.144;2023-11-19T23:13:28;25.40;42.30
36652;DHT22;53334;51.976;20.144;2023-11-19T23:16:04;25.40;42.20
36652;DHT22;53334;51.976;20.144;2023-11-19T23:18:37;25.50;42.40
36652;DHT22;53334;51.976;20.144;2023-11-19T23:21:10;25.50;42.60
36652;DHT22;53334;51.976;20.144;2023-11-19T23:23:46;25.50;42.70